sensor_id;sensor_type;location;lat;lon;timestamp;P1;durP1;ratioP1;P2;durP2;ratioP2
3941;SDS011;1985;48.592;8.850;2023-07-31T00:02:02;10.23;;;2.00;;
3941;SDS011;1985;48.592;8.850;2023-07-31T00:04:27;8.75;;;2.03;;
3941;SDS011;1985;48.592;8.850;2023-07-31T00:06:53;9.30;;;1.90;;
3941;SDS011;1985;48.592;8.850;2023-07-31T00:09:18;10.63;;;1.97;;
3941;SDS011;1985;48.592;8.850;2023-07-31T00:11:44;9.90;;;1.90;;
3941;SDS011;1985;48.592;8.850;2023-07-31T00:14:10;9.47;;;1.73;;
3941;SDS011;1985;48.592;8.850;2023-07-31T00:16:36;13.00;;;1.90;;
3941;SDS011;1985;48.592;8.850;2023-07-31T00:19:02;9.87;;;1.73;;
3941;SDS011;1985;48.592;8.850;2023-07-31T00:21:27;10.90;;;2.40;;
3941;SDS011;1985;48.592;8.850;2023-07-31T00:23:53;10.38;;;2.00;;
3941;SDS011;1985;48.592;8.850;2023-07-31T00:26:18;10.15;;;1.90;;
3941;SDS011;1985;48.592;8.850;2023-07-31T00:28:44;9.40;;;1.60;;
3941;SDS011;1985;48.592;8.850;2023-07-31T00:31:09;11.33;;;1.87;;
3941;SDS011;1985;48.592;8.850;2023-07-31T00:33:35;10.75;;;1.90;;
3941;SDS011;1985;48.592;8.850;2023-07-31T00:36:01;9.10;;;2.00;;
3941;SDS011;1985;48.592;8.850;2023-07-31T00:38:27;8.80;;;1.80;;
3941;SDS011;1985;48.592;8.850;2023-07-31T00:40:53;10.57;;;2.10;;
3941;SDS011;1985;48.592;8.850;2023-07-31T00:43:18;9.65;;;2.00;;
3941;SDS011;1985;48.592;8.850;2023-07-31T00:45:44;8.73;;;1.80;;
3941;SDS011;1985;48.592;8.850;2023-07-31T00:48:09;10.70;;;2.07;;
3941;SDS011;1985;48.592;8.850;2023-07-31T00:50:36;9.25;;;1.77;;
3941;SDS011;1985;48.592;8.850;2023-07-31T00:53:02;9.50;;;1.88;;
3941;SDS011;1985;48.592;8.850;2023-07-31T00:55:28;9.68;;;1.88;;
3941;SDS011;1985;48.592;8.850;2023-07-31T00:57:54;10.68;;;1.95;;
3941;SDS011;1985;48.592;8.850;2023-07-31T01:00:21;9.32;;;2.20;;
3941;SDS011;1985;48.592;8.850;2023-07-31T01:02:47;9.60;;;2.08;;
3941;SDS011;1985;48.592;8.850;2023-07-31T01:05:15;9.20;;;1.80;;
3941;SDS011;1985;48.592;8.850;2023-07-31T01:10:23;10.27;;;2.15;;
3941;SDS011;1985;48.592;8.850;2023-07-31T01:12:55;8.90;;;1.92;;
3941;SDS011;1985;48.592;8.850;2023-07-31T01:15:22;11.85;;;2.10;;
3941;SDS011;1985;48.592;8.850;2023-07-31T01:17:48;9.75;;;2.30;;
3941;SDS011;1985;48.592;8.850;2023-07-31T01:20:16;11.43;;;1.92;;
3941;SDS011;1985;48.592;8.850;2023-07-31T01:28:33;11.65;;;2.47;;
3941;SDS011;1985;48.592;8.850;2023-07-31T01:31:13;9.70;;;2.00;;
3941;SDS011;1985;48.592;8.850;2023-07-31T01:33:43;9.93;;;2.10;;
3941;SDS011;1985;48.592;8.850;2023-07-31T01:36:10;10.43;;;2.20;;
3941;SDS011;1985;48.592;8.850;2023-07-31T01:38:36;13.10;;;2.10;;
3941;SDS011;1985;48.592;8.850;2023-07-31T01:41:02;10.32;;;2.17;;
3941;SDS011;1985;48.592;8.850;2023-07-31T01:43:27;10.07;;;2.17;;
3941;SDS011;1985;48.592;8.850;2023-07-31T01:45:53;8.90;;;2.10;;
3941;SDS011;1985;48.592;8.850;2023-07-31T01:48:19;11.65;;;2.20;;
3941;SDS011;1985;48.592;8.850;2023-07-31T01:50:44;11.57;;;2.30;;
3941;SDS011;1985;48.592;8.850;2023-07-31T01:53:10;9.53;;;2.13;;
3941;SDS011;1985;48.592;8.850;2023-07-31T01:55:37;9.27;;;2.00;;
3941;SDS011;1985;48.592;8.850;2023-07-31T01:58:02;10.07;;;2.20;;
3941;SDS011;1985;48.592;8.850;2023-07-31T02:00:28;10.55;;;2.00;;
3941;SDS011;1985;48.592;8.850;2023-07-31T02:02:54;13.27;;;2.00;;
3941;SDS011;1985;48.592;8.850;2023-07-31T02:05:19;10.17;;;1.97;;
3941;SDS011;1985;48.592;8.850;2023-07-31T02:07:45;10.23;;;1.80;;
3941;SDS011;1985;48.592;8.850;2023-07-31T02:10:11;9.80;;;2.10;;
3941;SDS011;1985;48.592;8.850;2023-07-31T02:12:36;8.30;;;1.90;;
3941;SDS011;1985;48.592;8.850;2023-07-31T02:15:02;8.27;;;1.73;;
3941;SDS011;1985;48.592;8.850;2023-07-31T02:17:28;11.37;;;2.20;;
3941;SDS011;1985;48.592;8.850;2023-07-31T02:19:54;14.40;;;2.40;;
3941;SDS011;1985;48.592;8.850;2023-07-31T02:22:20;10.15;;;1.95;;
3941;SDS011;1985;48.592;8.850;2023-07-31T02:24:45;10.57;;;1.90;;
3941;SDS011;1985;48.592;8.850;2023-07-31T02:27:11;9.30;;;2.13;;
3941;SDS011;1985;48.592;8.850;2023-07-31T02:29:37;10.80;;;1.90;;
3941;SDS011;1985;48.592;8.850;2023-07-31T02:32:02;11.00;;;1.83;;
3941;SDS011;1985;48.592;8.850;2023-07-31T02:34:28;10.80;;;1.85;;
3941;SDS011;1985;48.592;8.850;2023-07-31T02:36:54;10.63;;;2.10;;
3941;SDS011;1985;48.592;8.850;2023-07-31T02:39:19;11.50;;;2.40;;
3941;SDS011;1985;48.592;8.850;2023-07-31T02:41:45;9.60;;;2.03;;
3941;SDS011;1985;48.592;8.850;2023-07-31T02:44:11;11.50;;;2.30;;
3941;SDS011;1985;48.592;8.850;2023-07-31T02:46:39;9.05;;;1.98;;
3941;SDS011;1985;48.592;8.850;2023-07-31T02:49:05;12.20;;;2.03;;
3941;SDS011;1985;48.592;8.850;2023-07-31T02:51:30;10.55;;;2.05;;
3941;SDS011;1985;48.592;8.850;2023-07-31T02:53:56;9.40;;;2.00;;
3941;SDS011;1985;48.592;8.850;2023-07-31T02:56:21;8.70;;;2.00;;
3941;SDS011;1985;48.592;8.850;2023-07-31T02:58:47;12.40;;;2.00;;
3941;SDS011;1985;48.592;8.850;2023-07-31T03:01:13;8.50;;;2.00;;
3941;SDS011;1985;48.592;8.850;2023-07-31T03:03:38;9.10;;;1.90;;
3941;SDS011;1985;48.592;8.850;2023-07-31T03:06:05;9.60;;;1.90;;
3941;SDS011;1985;48.592;8.850;2023-07-31T03:08:31;12.13;;;2.13;;
3941;SDS011;1985;48.592;8.850;2023-07-31T03:10:56;9.10;;;1.95;;
3941;SDS011;1985;48.592;8.850;2023-07-31T03:13:22;10.80;;;1.80;;
3941;SDS011;1985;48.592;8.850;2023-07-31T03:15:48;9.73;;;2.40;;
3941;SDS011;1985;48.592;8.850;2023-07-31T03:18:13;9.35;;;2.00;;
3941;SDS011;1985;48.592;8.850;2023-07-31T03:20:42;10.30;;;2.00;;
3941;SDS011;1985;48.592;8.850;2023-07-31T03:23:08;10.30;;;2.00;;
3941;SDS011;1985;48.592;8.850;2023-07-31T03:25:34;8.68;;;1.70;;
3941;SDS011;1985;48.592;8.850;2023-07-31T03:27:59;41.92;;;17.70;;
3941;SDS011;1985;48.592;8.850;2023-07-31T03:30:25;45.50;;;17.67;;
3941;SDS011;1985;48.592;8.850;2023-07-31T03:32:51;32.03;;;13.13;;
3941;SDS011;1985;48.592;8.850;2023-07-31T03:35:16;20.35;;;7.30;;
3941;SDS011;1985;48.592;8.850;2023-07-31T03:37:42;13.30;;;4.17;;
3941;SDS011;1985;48.592;8.850;2023-07-31T03:40:08;12.30;;;3.77;;
3941;SDS011;1985;48.592;8.850;2023-07-31T03:42:34;11.23;;;2.30;;
3941;SDS011;1985;48.592;8.850;2023-07-31T03:44:59;9.43;;;2.22;;
3941;SDS011;1985;48.592;8.850;2023-07-31T03:47:25;13.13;;;2.33;;
3941;SDS011;1985;48.592;8.850;2023-07-31T03:49:51;13.05;;;2.45;;
3941;SDS011;1985;48.592;8.850;2023-07-31T03:52:17;9.17;;;2.50;;
3941;SDS011;1985;48.592;8.850;2023-07-31T03:54:42;9.97;;;2.50;;
3941;SDS011;1985;48.592;8.850;2023-07-31T03:57:09;10.07;;;2.20;;
3941;SDS011;1985;48.592;8.850;2023-07-31T03:59:36;10.48;;;2.20;;
3941;SDS011;1985;48.592;8.850;2023-07-31T04:02:04;14.40;;;2.10;;
3941;SDS011;1985;48.592;8.850;2023-07-31T04:04:29;10.00;;;2.20;;
3941;SDS011;1985;48.592;8.850;2023-07-31T04:06:55;9.60;;;2.20;;
3941;SDS011;1985;48.592;8.850;2023-07-31T04:09:20;10.70;;;2.30;;
3941;SDS011;1985;48.592;8.850;2023-07-31T04:11:46;13.63;;;2.27;;
3941;SDS011;1985;48.592;8.850;2023-07-31T04:14:11;8.53;;;2.03;;
3941;SDS011;1985;48.592;8.850;2023-07-31T04:16:37;13.02;;;2.40;;
3941;SDS011;1985;48.592;8.850;2023-07-31T04:19:03;9.17;;;2.00;;
3941;SDS011;1985;48.592;8.850;2023-07-31T04:21:29;8.10;;;2.13;;
3941;SDS011;1985;48.592;8.850;2023-07-31T04:23:54;9.03;;;2.10;;
3941;SDS011;1985;48.592;8.850;2023-07-31T04:26:21;11.63;;;2.22;;
3941;SDS011;1985;48.592;8.850;2023-07-31T04:28:47;11.68;;;2.40;;
3941;SDS011;1985;48.592;8.850;2023-07-31T04:31:12;15.50;;;2.87;;
3941;SDS011;1985;48.592;8.850;2023-07-31T04:33:38;9.60;;;2.67;;
3941;SDS011;1985;48.592;8.850;2023-07-31T04:36:04;10.63;;;2.57;;
3941;SDS011;1985;48.592;8.850;2023-07-31T04:38:30;9.63;;;2.33;;
3941;SDS011;1985;48.592;8.850;2023-07-31T04:40:56;11.57;;;2.70;;
3941;SDS011;1985;48.592;8.850;2023-07-31T04:43:21;11.50;;;2.40;;
3941;SDS011;1985;48.592;8.850;2023-07-31T04:45:47;10.03;;;2.30;;
3941;SDS011;1985;48.592;8.850;2023-07-31T04:48:13;10.50;;;2.40;;
3941;SDS011;1985;48.592;8.850;2023-07-31T04:50:39;12.25;;;2.08;;
3941;SDS011;1985;48.592;8.850;2023-07-31T04:53:05;11.30;;;2.40;;
3941;SDS011;1985;48.592;8.850;2023-07-31T04:55:30;12.85;;;2.40;;
3941;SDS011;1985;48.592;8.850;2023-07-31T04:57:57;13.57;;;2.50;;
3941;SDS011;1985;48.592;8.850;2023-07-31T05:00:24;9.65;;;2.20;;
3941;SDS011;1985;48.592;8.850;2023-07-31T05:02:49;9.80;;;2.50;;
3941;SDS011;1985;48.592;8.850;2023-07-31T05:05:15;10.80;;;2.60;;
3941;SDS011;1985;48.592;8.850;2023-07-31T05:07:40;9.63;;;2.17;;
3941;SDS011;1985;48.592;8.850;2023-07-31T05:10:06;9.63;;;2.27;;
3941;SDS011;1985;48.592;8.850;2023-07-31T05:12:32;12.63;;;2.30;;
3941;SDS011;1985;48.592;8.850;2023-07-31T05:14:58;12.90;;;3.33;;
3941;SDS011;1985;48.592;8.850;2023-07-31T05:17:23;12.18;;;2.60;;
3941;SDS011;1985;48.592;8.850;2023-07-31T05:19:49;9.95;;;2.75;;
3941;SDS011;1985;48.592;8.850;2023-07-31T05:22:14;9.00;;;1.90;;
3941;SDS011;1985;48.592;8.850;2023-07-31T05:24:40;9.70;;;2.10;;
3941;SDS011;1985;48.592;8.850;2023-07-31T05:27:06;9.60;;;2.20;;
3941;SDS011;1985;48.592;8.850;2023-07-31T05:29:31;10.40;;;2.30;;
3941;SDS011;1985;48.592;8.850;2023-07-31T05:31:57;9.70;;;2.20;;
3941;SDS011;1985;48.592;8.850;2023-07-31T05:34:22;11.40;;;2.70;;
3941;SDS011;1985;48.592;8.850;2023-07-31T05:36:48;13.80;;;2.33;;
3941;SDS011;1985;48.592;8.850;2023-07-31T05:39:14;9.15;;;2.30;;
3941;SDS011;1985;48.592;8.850;2023-07-31T05:41:39;11.00;;;2.20;;
3941;SDS011;1985;48.592;8.850;2023-07-31T05:44:05;9.87;;;2.47;;
3941;SDS011;1985;48.592;8.850;2023-07-31T05:46:30;9.73;;;2.13;;
3941;SDS011;1985;48.592;8.850;2023-07-31T05:48:56;10.77;;;2.47;;
3941;SDS011;1985;48.592;8.850;2023-07-31T05:51:22;10.60;;;2.27;;
3941;SDS011;1985;48.592;8.850;2023-07-31T05:53:47;11.90;;;2.10;;
3941;SDS011;1985;48.592;8.850;2023-07-31T05:56:13;9.80;;;2.20;;
3941;SDS011;1985;48.592;8.850;2023-07-31T05:58:39;10.10;;;2.43;;
3941;SDS011;1985;48.592;8.850;2023-07-31T06:01:04;9.30;;;2.38;;
3941;SDS011;1985;48.592;8.850;2023-07-31T06:03:30;13.40;;;2.75;;
3941;SDS011;1985;48.592;8.850;2023-07-31T06:05:55;12.07;;;2.50;;
3941;SDS011;1985;48.592;8.850;2023-07-31T06:08:21;11.13;;;2.30;;
3941;SDS011;1985;48.592;8.850;2023-07-31T06:10:46;11.93;;;2.20;;
3941;SDS011;1985;48.592;8.850;2023-07-31T06:13:12;11.60;;;1.90;;
3941;SDS011;1985;48.592;8.850;2023-07-31T06:15:38;12.80;;;2.10;;
3941;SDS011;1985;48.592;8.850;2023-07-31T06:18:03;10.80;;;2.00;;
3941;SDS011;1985;48.592;8.850;2023-07-31T06:20:32;10.55;;;2.30;;
3941;SDS011;1985;48.592;8.850;2023-07-31T06:22:59;12.88;;;3.45;;
3941;SDS011;1985;48.592;8.850;2023-07-31T06:25:24;13.10;;;4.18;;
3941;SDS011;1985;48.592;8.850;2023-07-31T06:27:50;17.38;;;3.45;;
3941;SDS011;1985;48.592;8.850;2023-07-31T06:30:16;11.98;;;2.90;;
3941;SDS011;1985;48.592;8.850;2023-07-31T06:32:41;12.13;;;2.90;;
3941;SDS011;1985;48.592;8.850;2023-07-31T06:35:07;15.43;;;2.50;;
3941;SDS011;1985;48.592;8.850;2023-07-31T06:37:33;11.73;;;2.38;;
3941;SDS011;1985;48.592;8.850;2023-07-31T06:39:59;11.13;;;2.27;;
3941;SDS011;1985;48.592;8.850;2023-07-31T06:42:24;8.77;;;1.63;;
3941;SDS011;1985;48.592;8.850;2023-07-31T06:44:50;10.82;;;2.28;;
3941;SDS011;1985;48.592;8.850;2023-07-31T06:47:16;11.57;;;2.30;;
3941;SDS011;1985;48.592;8.850;2023-07-31T06:49:41;11.80;;;2.10;;
3941;SDS011;1985;48.592;8.850;2023-07-31T06:52:07;9.48;;;2.05;;
3941;SDS011;1985;48.592;8.850;2023-07-31T06:54:32;9.43;;;1.90;;
3941;SDS011;1985;48.592;8.850;2023-07-31T06:56:58;10.03;;;2.23;;
3941;SDS011;1985;48.592;8.850;2023-07-31T06:59:24;9.00;;;2.07;;
3941;SDS011;1985;48.592;8.850;2023-07-31T07:01:49;9.10;;;1.93;;
3941;SDS011;1985;48.592;8.850;2023-07-31T07:04:15;13.70;;;2.85;;
3941;SDS011;1985;48.592;8.850;2023-07-31T07:06:41;13.43;;;3.20;;
3941;SDS011;1985;48.592;8.850;2023-07-31T07:09:07;11.18;;;2.55;;
3941;SDS011;1985;48.592;8.850;2023-07-31T07:11:33;11.33;;;2.40;;
3941;SDS011;1985;48.592;8.850;2023-07-31T07:13:59;12.50;;;2.53;;
3941;SDS011;1985;48.592;8.850;2023-07-31T07:16:25;14.80;;;2.60;;
3941;SDS011;1985;48.592;8.850;2023-07-31T07:18:51;15.33;;;2.60;;
3941;SDS011;1985;48.592;8.850;2023-07-31T07:21:17;28.10;;;3.08;;
3941;SDS011;1985;48.592;8.850;2023-07-31T07:23:43;10.20;;;2.63;;
3941;SDS011;1985;48.592;8.850;2023-07-31T07:26:08;9.90;;;2.33;;
3941;SDS011;1985;48.592;8.850;2023-07-31T07:28:34;13.50;;;2.60;;
3941;SDS011;1985;48.592;8.850;2023-07-31T07:31:02;11.25;;;2.28;;
3941;SDS011;1985;48.592;8.850;2023-07-31T07:33:27;10.07;;;2.30;;
3941;SDS011;1985;48.592;8.850;2023-07-31T07:35:53;11.40;;;2.10;;
3941;SDS011;1985;48.592;8.850;2023-07-31T07:38:19;10.07;;;1.70;;
3941;SDS011;1985;48.592;8.850;2023-07-31T07:40:45;9.85;;;2.20;;
3941;SDS011;1985;48.592;8.850;2023-07-31T07:43:15;14.57;;;2.50;;
3941;SDS011;1985;48.592;8.850;2023-07-31T07:45:41;10.95;;;2.20;;
3941;SDS011;1985;48.592;8.850;2023-07-31T07:48:06;12.80;;;2.10;;
3941;SDS011;1985;48.592;8.850;2023-07-31T07:50:32;11.67;;;2.00;;
3941;SDS011;1985;48.592;8.850;2023-07-31T07:52:58;10.90;;;2.40;;
3941;SDS011;1985;48.592;8.850;2023-07-31T07:55:23;11.80;;;2.45;;
3941;SDS011;1985;48.592;8.850;2023-07-31T07:57:49;9.80;;;2.20;;
3941;SDS011;1985;48.592;8.850;2023-07-31T08:00:15;10.20;;;2.20;;
3941;SDS011;1985;48.592;8.850;2023-07-31T08:02:42;9.40;;;2.40;;
3941;SDS011;1985;48.592;8.850;2023-07-31T08:05:08;10.38;;;2.30;;
3941;SDS011;1985;48.592;8.850;2023-07-31T08:07:34;10.57;;;2.20;;
3941;SDS011;1985;48.592;8.850;2023-07-31T08:10:00;11.35;;;2.20;;
3941;SDS011;1985;48.592;8.850;2023-07-31T08:12:25;16.07;;;2.10;;
3941;SDS011;1985;48.592;8.850;2023-07-31T08:14:51;13.83;;;2.20;;
3941;SDS011;1985;48.592;8.850;2023-07-31T08:17:17;10.00;;;2.30;;
3941;SDS011;1985;48.592;8.850;2023-07-31T08:19:42;11.43;;;2.10;;
3941;SDS011;1985;48.592;8.850;2023-07-31T08:22:09;11.70;;;2.70;;
3941;SDS011;1985;48.592;8.850;2023-07-31T08:24:34;9.50;;;1.97;;
3941;SDS011;1985;48.592;8.850;2023-07-31T08:27:00;9.57;;;2.63;;
3941;SDS011;1985;48.592;8.850;2023-07-31T08:29:26;9.90;;;2.00;;
3941;SDS011;1985;48.592;8.850;2023-07-31T08:31:51;11.80;;;2.30;;
3941;SDS011;1985;48.592;8.850;2023-07-31T08:34:17;11.33;;;2.27;;
3941;SDS011;1985;48.592;8.850;2023-07-31T08:36:42;14.13;;;2.27;;
3941;SDS011;1985;48.592;8.850;2023-07-31T08:39:08;11.10;;;2.50;;
3941;SDS011;1985;48.592;8.850;2023-07-31T08:41:37;10.40;;;2.22;;
3941;SDS011;1985;48.592;8.850;2023-07-31T08:44:04;9.88;;;2.28;;
3941;SDS011;1985;48.592;8.850;2023-07-31T08:46:30;11.38;;;2.42;;
3941;SDS011;1985;48.592;8.850;2023-07-31T08:48:58;13.10;;;2.67;;
3941;SDS011;1985;48.592;8.850;2023-07-31T08:51:25;15.37;;;2.33;;
3941;SDS011;1985;48.592;8.850;2023-07-31T08:53:52;11.38;;;2.00;;
3941;SDS011;1985;48.592;8.850;2023-07-31T08:56:18;10.60;;;2.20;;
3941;SDS011;1985;48.592;8.850;2023-07-31T08:58:45;9.60;;;1.80;;
3941;SDS011;1985;48.592;8.850;2023-07-31T09:01:12;11.40;;;2.58;;
3941;SDS011;1985;48.592;8.850;2023-07-31T09:03:38;13.20;;;2.30;;
3941;SDS011;1985;48.592;8.850;2023-07-31T09:06:05;10.68;;;2.30;;
3941;SDS011;1985;48.592;8.850;2023-07-31T09:08:32;9.93;;;2.10;;
3941;SDS011;1985;48.592;8.850;2023-07-31T09:10:59;10.95;;;3.03;;
3941;SDS011;1985;48.592;8.850;2023-07-31T09:13:28;10.90;;;2.10;;
3941;SDS011;1985;48.592;8.850;2023-07-31T09:15:55;11.60;;;2.20;;
3941;SDS011;1985;48.592;8.850;2023-07-31T09:18:21;13.07;;;2.10;;
3941;SDS011;1985;48.592;8.850;2023-07-31T09:21:03;13.40;;;2.10;;
3941;SDS011;1985;48.592;8.850;2023-07-31T09:23:42;11.07;;;2.30;;
3941;SDS011;1985;48.592;8.850;2023-07-31T09:26:09;10.32;;;2.20;;
3941;SDS011;1985;48.592;8.850;2023-07-31T09:28:35;11.75;;;2.30;;
3941;SDS011;1985;48.592;8.850;2023-07-31T09:31:01;10.23;;;2.15;;
3941;SDS011;1985;48.592;8.850;2023-07-31T09:33:27;9.55;;;2.20;;
3941;SDS011;1985;48.592;8.850;2023-07-31T09:35:52;11.52;;;2.60;;
3941;SDS011;1985;48.592;8.850;2023-07-31T09:38:18;11.00;;;2.80;;
3941;SDS011;1985;48.592;8.850;2023-07-31T09:40:44;11.90;;;3.50;;
3941;SDS011;1985;48.592;8.850;2023-07-31T09:43:12;13.43;;;2.58;;
3941;SDS011;1985;48.592;8.850;2023-07-31T09:45:42;10.00;;;2.60;;
3941;SDS011;1985;48.592;8.850;2023-07-31T09:50:36;12.57;;;3.00;;
3941;SDS011;1985;48.592;8.850;2023-07-31T09:53:03;9.93;;;2.83;;
3941;SDS011;1985;48.592;8.850;2023-07-31T09:55:29;12.13;;;2.42;;
3941;SDS011;1985;48.592;8.850;2023-07-31T09:57:56;12.15;;;2.17;;
3941;SDS011;1985;48.592;8.850;2023-07-31T10:00:22;11.82;;;2.35;;
3941;SDS011;1985;48.592;8.850;2023-07-31T10:02:50;10.45;;;2.40;;
3941;SDS011;1985;48.592;8.850;2023-07-31T10:05:17;10.30;;;2.10;;
3941;SDS011;1985;48.592;8.850;2023-07-31T10:07:54;13.20;;;2.80;;
3941;SDS011;1985;48.592;8.850;2023-07-31T10:10:21;12.23;;;2.50;;
3941;SDS011;1985;48.592;8.850;2023-07-31T10:12:48;12.30;;;2.30;;
3941;SDS011;1985;48.592;8.850;2023-07-31T10:15:14;10.80;;;2.40;;
3941;SDS011;1985;48.592;8.850;2023-07-31T10:17:41;9.93;;;2.10;;
3941;SDS011;1985;48.592;8.850;2023-07-31T10:20:07;12.02;;;2.33;;
3941;SDS011;1985;48.592;8.850;2023-07-31T10:22:34;13.00;;;2.40;;
3941;SDS011;1985;48.592;8.850;2023-07-31T10:25:00;16.77;;;2.30;;
3941;SDS011;1985;48.592;8.850;2023-07-31T10:27:27;11.95;;;2.60;;
3941;SDS011;1985;48.592;8.850;2023-07-31T10:29:53;10.27;;;2.70;;
3941;SDS011;1985;48.592;8.850;2023-07-31T10:32:20;14.27;;;2.50;;
3941;SDS011;1985;48.592;8.850;2023-07-31T10:34:48;13.82;;;3.20;;
3941;SDS011;1985;48.592;8.850;2023-07-31T10:42:44;11.73;;;2.30;;
3941;SDS011;1985;48.592;8.850;2023-07-31T10:45:14;9.25;;;2.33;;
3941;SDS011;1985;48.592;8.850;2023-07-31T10:48:02;9.70;;;2.30;;
3941;SDS011;1985;48.592;8.850;2023-07-31T10:50:29;10.30;;;2.17;;
3941;SDS011;1985;48.592;8.850;2023-07-31T10:52:59;10.68;;;2.03;;
3941;SDS011;1985;48.592;8.850;2023-07-31T10:58:11;10.03;;;2.60;;
3941;SDS011;1985;48.592;8.850;2023-07-31T11:00:46;9.87;;;2.20;;
3941;SDS011;1985;48.592;8.850;2023-07-31T11:03:24;11.32;;;2.30;;
3941;SDS011;1985;48.592;8.850;2023-07-31T11:06:03;9.63;;;2.53;;
3941;SDS011;1985;48.592;8.850;2023-07-31T11:08:30;14.02;;;2.20;;
3941;SDS011;1985;48.592;8.850;2023-07-31T11:15:57;10.85;;;2.20;;
3941;SDS011;1985;48.592;8.850;2023-07-31T11:18:23;11.63;;;2.50;;
3941;SDS011;1985;48.592;8.850;2023-07-31T11:20:50;12.80;;;2.30;;
3941;SDS011;1985;48.592;8.850;2023-07-31T11:23:16;12.80;;;2.33;;
3941;SDS011;1985;48.592;8.850;2023-07-31T11:25:43;12.52;;;2.90;;
3941;SDS011;1985;48.592;8.850;2023-07-31T11:28:10;9.55;;;2.50;;
3941;SDS011;1985;48.592;8.850;2023-07-31T11:30:37;10.50;;;2.30;;
3941;SDS011;1985;48.592;8.850;2023-07-31T11:33:06;13.48;;;2.63;;
3941;SDS011;1985;48.592;8.850;2023-07-31T11:35:40;10.25;;;2.40;;
3941;SDS011;1985;48.592;8.850;2023-07-31T11:38:07;11.70;;;2.30;;
3941;SDS011;1985;48.592;8.850;2023-07-31T11:40:42;13.38;;;2.70;;
3941;SDS011;1985;48.592;8.850;2023-07-31T11:43:09;11.88;;;2.60;;
3941;SDS011;1985;48.592;8.850;2023-07-31T11:45:36;10.20;;;2.40;;
3941;SDS011;1985;48.592;8.850;2023-07-31T11:48:04;11.30;;;2.30;;
3941;SDS011;1985;48.592;8.850;2023-07-31T11:50:30;17.60;;;2.77;;
3941;SDS011;1985;48.592;8.850;2023-07-31T11:53:00;11.32;;;2.58;;
3941;SDS011;1985;48.592;8.850;2023-07-31T11:55:29;10.95;;;2.70;;
3941;SDS011;1985;48.592;8.850;2023-07-31T11:57:56;9.77;;;2.30;;
3941;SDS011;1985;48.592;8.850;2023-07-31T12:00:23;10.68;;;2.55;;
3941;SDS011;1985;48.592;8.850;2023-07-31T12:02:50;10.05;;;2.35;;
3941;SDS011;1985;48.592;8.850;2023-07-31T12:05:16;12.70;;;2.42;;
3941;SDS011;1985;48.592;8.850;2023-07-31T12:07:52;12.30;;;2.20;;
3941;SDS011;1985;48.592;8.850;2023-07-31T12:10:37;12.77;;;2.45;;
3941;SDS011;1985;48.592;8.850;2023-07-31T12:13:09;11.35;;;2.80;;
3941;SDS011;1985;48.592;8.850;2023-07-31T12:18:10;12.00;;;2.53;;
3941;SDS011;1985;48.592;8.850;2023-07-31T12:20:44;12.05;;;2.70;;
3941;SDS011;1985;48.592;8.850;2023-07-31T12:23:18;12.90;;;2.50;;
3941;SDS011;1985;48.592;8.850;2023-07-31T12:28:40;9.27;;;2.10;;
3941;SDS011;1985;48.592;8.850;2023-07-31T12:31:20;11.60;;;2.67;;
3941;SDS011;1985;48.592;8.850;2023-07-31T12:33:47;10.70;;;2.10;;
3941;SDS011;1985;48.592;8.850;2023-07-31T12:36:23;11.75;;;2.70;;
3941;SDS011;1985;48.592;8.850;2023-07-31T12:38:49;9.73;;;2.40;;
3941;SDS011;1985;48.592;8.850;2023-07-31T12:41:15;13.40;;;2.38;;
3941;SDS011;1985;48.592;8.850;2023-07-31T12:43:42;12.07;;;2.42;;
3941;SDS011;1985;48.592;8.850;2023-07-31T12:46:09;9.93;;;2.40;;
3941;SDS011;1985;48.592;8.850;2023-07-31T12:48:35;13.85;;;2.15;;
3941;SDS011;1985;48.592;8.850;2023-07-31T12:51:01;10.40;;;2.50;;
3941;SDS011;1985;48.592;8.850;2023-07-31T12:53:27;10.30;;;2.53;;
3941;SDS011;1985;48.592;8.850;2023-07-31T12:55:54;11.48;;;2.22;;
3941;SDS011;1985;48.592;8.850;2023-07-31T12:58:23;11.77;;;2.20;;
3941;SDS011;1985;48.592;8.850;2023-07-31T13:00:49;12.23;;;2.60;;
3941;SDS011;1985;48.592;8.850;2023-07-31T13:03:15;10.18;;;2.40;;
3941;SDS011;1985;48.592;8.850;2023-07-31T13:05:41;9.70;;;2.30;;
3941;SDS011;1985;48.592;8.850;2023-07-31T13:08:07;12.50;;;2.80;;
3941;SDS011;1985;48.592;8.850;2023-07-31T13:10:33;13.10;;;2.90;;
3941;SDS011;1985;48.592;8.850;2023-07-31T13:12:59;10.80;;;2.50;;
3941;SDS011;1985;48.592;8.850;2023-07-31T13:15:24;12.57;;;2.80;;
3941;SDS011;1985;48.592;8.850;2023-07-31T13:17:50;12.20;;;2.55;;
3941;SDS011;1985;48.592;8.850;2023-07-31T13:20:16;13.90;;;2.60;;
3941;SDS011;1985;48.592;8.850;2023-07-31T13:22:41;10.63;;;2.50;;
3941;SDS011;1985;48.592;8.850;2023-07-31T13:25:07;10.57;;;2.70;;
3941;SDS011;1985;48.592;8.850;2023-07-31T13:27:35;17.17;;;2.70;;
3941;SDS011;1985;48.592;8.850;2023-07-31T13:30:00;11.75;;;2.90;;
3941;SDS011;1985;48.592;8.850;2023-07-31T13:32:26;14.70;;;2.60;;
3941;SDS011;1985;48.592;8.850;2023-07-31T13:34:52;14.97;;;2.70;;
3941;SDS011;1985;48.592;8.850;2023-07-31T13:37:18;12.43;;;2.70;;
3941;SDS011;1985;48.592;8.850;2023-07-31T13:39:43;10.13;;;2.50;;
3941;SDS011;1985;48.592;8.850;2023-07-31T13:42:09;9.07;;;2.28;;
3941;SDS011;1985;48.592;8.850;2023-07-31T13:44:39;11.35;;;2.95;;
3941;SDS011;1985;48.592;8.850;2023-07-31T13:47:06;9.95;;;2.75;;
3941;SDS011;1985;48.592;8.850;2023-07-31T13:49:32;11.00;;;2.63;;
3941;SDS011;1985;48.592;8.850;2023-07-31T13:51:58;13.57;;;2.73;;
3941;SDS011;1985;48.592;8.850;2023-07-31T13:54:24;11.13;;;2.70;;
3941;SDS011;1985;48.592;8.850;2023-07-31T13:56:50;14.00;;;2.50;;
3941;SDS011;1985;48.592;8.850;2023-07-31T13:59:17;13.93;;;2.47;;
3941;SDS011;1985;48.592;8.850;2023-07-31T14:01:43;12.60;;;2.65;;
3941;SDS011;1985;48.592;8.850;2023-07-31T14:04:09;12.55;;;2.95;;
3941;SDS011;1985;48.592;8.850;2023-07-31T14:06:35;13.00;;;3.00;;
3941;SDS011;1985;48.592;8.850;2023-07-31T14:09:01;12.60;;;3.30;;
3941;SDS011;1985;48.592;8.850;2023-07-31T14:11:27;12.13;;;2.60;;
3941;SDS011;1985;48.592;8.850;2023-07-31T14:13:55;12.50;;;2.90;;
3941;SDS011;1985;48.592;8.850;2023-07-31T14:16:21;10.80;;;2.28;;
3941;SDS011;1985;48.592;8.850;2023-07-31T14:18:47;9.30;;;2.30;;
3941;SDS011;1985;48.592;8.850;2023-07-31T14:21:12;9.50;;;2.80;;
3941;SDS011;1985;48.592;8.850;2023-07-31T14:23:39;11.50;;;2.70;;
3941;SDS011;1985;48.592;8.850;2023-07-31T14:26:05;9.47;;;2.70;;
3941;SDS011;1985;48.592;8.850;2023-07-31T14:28:31;11.55;;;2.60;;
3941;SDS011;1985;48.592;8.850;2023-07-31T14:30:56;10.45;;;2.47;;
3941;SDS011;1985;48.592;8.850;2023-07-31T14:33:22;12.00;;;2.70;;
3941;SDS011;1985;48.592;8.850;2023-07-31T14:35:48;11.40;;;2.20;;
3941;SDS011;1985;48.592;8.850;2023-07-31T14:38:14;11.88;;;2.60;;
3941;SDS011;1985;48.592;8.850;2023-07-31T14:40:40;11.07;;;2.80;;
3941;SDS011;1985;48.592;8.850;2023-07-31T14:43:06;10.27;;;2.70;;
3941;SDS011;1985;48.592;8.850;2023-07-31T14:45:34;10.43;;;2.77;;
3941;SDS011;1985;48.592;8.850;2023-07-31T14:48:00;10.63;;;2.43;;
3941;SDS011;1985;48.592;8.850;2023-07-31T14:50:25;9.68;;;2.75;;
3941;SDS011;1985;48.592;8.850;2023-07-31T14:52:51;16.23;;;2.90;;
3941;SDS011;1985;48.592;8.850;2023-07-31T14:55:18;11.97;;;2.80;;
3941;SDS011;1985;48.592;8.850;2023-07-31T14:57:43;11.20;;;2.50;;
3941;SDS011;1985;48.592;8.850;2023-07-31T15:00:09;9.50;;;2.40;;
3941;SDS011;1985;48.592;8.850;2023-07-31T15:02:36;10.13;;;2.50;;
3941;SDS011;1985;48.592;8.850;2023-07-31T15:05:05;10.52;;;2.75;;
3941;SDS011;1985;48.592;8.850;2023-07-31T15:07:32;12.38;;;2.60;;
3941;SDS011;1985;48.592;8.850;2023-07-31T15:09:58;10.23;;;2.58;;
3941;SDS011;1985;48.592;8.850;2023-07-31T15:12:24;9.20;;;2.30;;
3941;SDS011;1985;48.592;8.850;2023-07-31T15:14:51;11.38;;;2.90;;
3941;SDS011;1985;48.592;8.850;2023-07-31T15:17:17;12.10;;;2.60;;
3941;SDS011;1985;48.592;8.850;2023-07-31T15:19:43;11.98;;;2.47;;
3941;SDS011;1985;48.592;8.850;2023-07-31T15:22:09;11.73;;;2.60;;
3941;SDS011;1985;48.592;8.850;2023-07-31T15:24:34;9.70;;;2.30;;
3941;SDS011;1985;48.592;8.850;2023-07-31T15:27:00;10.90;;;2.20;;
3941;SDS011;1985;48.592;8.850;2023-07-31T15:29:27;10.50;;;2.50;;
3941;SDS011;1985;48.592;8.850;2023-07-31T15:31:54;12.15;;;2.53;;